createdAt,value
2022-10-16T00:00:28.177Z,940.62
2022-10-16T00:01:28.193Z,940.62
2022-10-16T00:02:28.318Z,940.61
2022-10-16T00:03:30.386Z,940.56
2022-10-16T00:04:28.236Z,940.58
2022-10-16T00:05:28.253Z,940.58
2022-10-16T00:06:28.265Z,940.57
2022-10-16T00:07:28.600Z,940.61
2022-10-16T00:08:28.296Z,940.64
2022-10-16T00:09:28.311Z,940.62
2022-10-16T00:10:28.324Z,940.56
2022-10-16T00:11:28.742Z,940.59
2022-10-16T00:12:28.716Z,940.56
2022-10-16T00:13:28.369Z,940.57
2022-10-16T00:14:28.383Z,940.58
2022-10-16T00:15:28.400Z,940.62
2022-10-16T00:16:28.413Z,940.59
2022-10-16T00:17:28.427Z,940.60
2022-10-16T00:18:28.463Z,940.61
2022-10-16T00:19:28.457Z,940.56
2022-10-16T00:20:28.473Z,940.57
2022-10-16T00:21:28.486Z,940.61
2022-10-16T00:22:28.704Z,940.55
2022-10-16T00:23:28.515Z,940.57
2022-10-16T00:24:28.533Z,940.54
2022-10-16T00:25:28.546Z,940.51
2022-10-16T00:26:28.561Z,940.53
2022-10-16T00:27:28.573Z,940.54
2022-10-16T00:28:28.665Z,940.45
2022-10-16T00:29:28.604Z,940.45
2022-10-16T00:30:28.618Z,940.41
2022-10-16T00:31:28.636Z,940.42
2022-10-16T00:32:28.838Z,940.41
2022-10-16T00:33:28.663Z,940.38
2022-10-16T00:34:28.698Z,940.42
2022-10-16T00:35:28.690Z,940.42
2022-10-16T00:36:28.708Z,940.40
2022-10-16T00:37:28.720Z,940.41
2022-10-16T00:38:28.735Z,940.41
2022-10-16T00:39:28.750Z,940.39
2022-10-16T00:40:28.764Z,940.41
2022-10-16T00:41:28.783Z,940.34
2022-10-16T00:42:29.215Z,940.38
2022-10-16T00:43:28.812Z,940.35
2022-10-16T00:44:28.824Z,940.29
2022-10-16T00:45:28.838Z,940.29
2022-10-16T00:46:28.855Z,940.28
2022-10-16T00:47:28.870Z,940.24
2022-10-16T00:48:28.880Z,940.23
2022-10-16T00:49:28.894Z,940.20
2022-10-16T00:50:28.928Z,940.17
2022-10-16T00:51:28.926Z,940.19
2022-10-16T00:52:29.069Z,940.17
2022-10-16T00:53:28.954Z,940.19
2022-10-16T00:54:28.968Z,940.13
2022-10-16T00:55:28.982Z,940.09
2022-10-16T00:56:28.999Z,940.05
2022-10-16T00:57:29.012Z,939.95
2022-10-16T00:58:29.026Z,939.97
2022-10-16T00:59:29.044Z,939.89
2022-10-16T01:00:29.056Z,939.85
2022-10-16T01:01:29.150Z,939.82
2022-10-16T01:02:29.267Z,939.85
2022-10-16T01:03:29.102Z,939.80
2022-10-16T01:04:29.115Z,939.86
2022-10-16T01:05:29.130Z,939.82
2022-10-16T01:06:29.165Z,939.77
2022-10-16T01:07:29.355Z,939.75
2022-10-16T01:08:29.175Z,939.70
2022-10-16T01:09:29.191Z,939.71
2022-10-16T01:10:29.201Z,939.68
2022-10-16T01:11:29.217Z,939.69
2022-10-16T01:12:29.234Z,939.68
2022-10-16T01:13:29.245Z,939.68
2022-10-16T01:14:29.261Z,939.71
2022-10-16T01:15:29.455Z,939.68
2022-10-16T01:16:29.292Z,939.66
2022-10-16T01:17:29.462Z,939.69
2022-10-16T01:18:29.320Z,939.71
2022-10-16T01:19:29.336Z,939.75
2022-10-16T01:20:29.348Z,939.72
2022-10-16T01:21:29.362Z,939.73
2022-10-16T01:22:29.395Z,939.68
2022-10-16T01:23:29.392Z,939.76
2022-10-16T01:24:29.407Z,939.71
2022-10-16T01:25:29.421Z,939.75
2022-10-16T01:26:29.438Z,939.68
2022-10-16T01:27:29.777Z,939.71
2022-10-16T01:28:29.503Z,939.62
2022-10-16T01:29:29.479Z,939.59
2022-10-16T01:30:29.497Z,939.58
2022-10-16T01:31:29.512Z,939.59
2022-10-16T01:32:29.524Z,939.61
2022-10-16T01:33:29.543Z,939.61
2022-10-16T01:34:29.551Z,939.60
2022-10-16T01:35:29.567Z,939.59
2022-10-16T01:36:29.583Z,939.53
2022-10-16T01:37:29.596Z,939.51
2022-10-16T01:38:29.630Z,939.50
2022-10-16T01:39:29.625Z,939.49
2022-10-16T01:40:29.639Z,939.49
2022-10-16T01:41:29.656Z,939.49
2022-10-16T01:42:29.671Z,939.47
2022-10-16T01:43:29.684Z,939.45
2022-10-16T01:44:29.699Z,939.46
2022-10-16T01:45:29.715Z,939.49
2022-10-16T01:46:29.727Z,939.44
2022-10-16T01:47:29.788Z,939.44
2022-10-16T01:48:29.756Z,939.41
2022-10-16T01:49:29.772Z,939.43
2022-10-16T01:50:29.785Z,939.43
2022-10-16T01:51:29.800Z,939.39
2022-10-16T01:52:29.905Z,939.36
2022-10-16T01:53:29.830Z,939.35
2022-10-16T01:54:29.864Z,939.35
2022-10-16T01:55:29.860Z,939.29
2022-10-16T01:56:29.882Z,939.29
2022-10-16T01:57:29.888Z,939.24
2022-10-16T01:58:29.902Z,939.25
2022-10-16T01:59:29.918Z,939.27
2022-10-16T02:00:29.932Z,939.24
2022-10-16T02:01:29.948Z,939.26
2022-10-16T02:02:29.963Z,939.27
2022-10-16T02:03:29.977Z,939.27
2022-10-16T02:04:29.991Z,939.25
2022-10-16T02:05:30.005Z,939.26
2022-10-16T02:06:30.021Z,939.27
2022-10-16T02:07:30.035Z,939.29
2022-10-16T02:08:30.050Z,939.30
2022-10-16T02:09:30.060Z,939.29
2022-10-16T02:11:30.092Z,939.27
2022-10-16T02:12:30.104Z,939.25
2022-10-16T02:13:30.121Z,939.28
2022-10-16T02:14:30.137Z,939.23
2022-10-16T02:15:30.148Z,939.23
2022-10-16T02:16:30.165Z,939.21
2022-10-16T02:17:30.179Z,939.17
2022-10-16T02:18:30.294Z,939.16
2022-10-16T02:19:30.278Z,939.16
2022-10-16T02:20:30.223Z,939.10
2022-10-16T02:21:30.236Z,939.07
2022-10-16T02:22:30.251Z,939.05
2022-10-16T02:23:30.265Z,939.05
2022-10-16T02:24:30.281Z,939.00
2022-10-16T02:25:30.293Z,938.97
2022-10-16T02:26:30.330Z,938.94
2022-10-16T02:27:30.323Z,938.92
2022-10-16T02:28:30.393Z,938.90
2022-10-16T02:29:30.352Z,938.86
2022-10-16T02:30:30.377Z,938.79
2022-10-16T02:31:30.382Z,938.79
2022-10-16T02:32:30.398Z,938.75
2022-10-16T02:33:30.411Z,938.76
2022-10-16T02:34:30.425Z,938.72
2022-10-16T02:35:30.465Z,938.72
2022-10-16T02:36:30.453Z,938.73
2022-10-16T02:37:30.469Z,938.75
2022-10-16T02:38:30.484Z,938.77
2022-10-16T02:39:30.498Z,938.78
2022-10-16T02:40:30.518Z,938.79
2022-10-16T02:41:30.532Z,938.74
2022-10-16T02:42:30.564Z,938.80
2022-10-16T02:43:30.556Z,938.80
2022-10-16T02:44:30.571Z,938.85
2022-10-16T02:45:30.586Z,938.82
2022-10-16T02:46:30.598Z,938.83
2022-10-16T02:47:30.615Z,938.82
2022-10-16T02:48:30.628Z,938.77
2022-10-16T02:49:30.644Z,938.73
2022-10-16T02:50:30.658Z,938.72
2022-10-16T02:51:30.672Z,938.64
2022-10-16T02:52:30.791Z,938.57
2022-10-16T02:53:30.701Z,938.57
2022-10-16T02:54:30.715Z,938.55
2022-10-16T02:55:30.731Z,938.53
2022-10-16T02:56:30.745Z,938.55
2022-10-16T02:57:30.778Z,938.55
2022-10-16T02:58:30.792Z,938.56
2022-10-16T02:59:30.789Z,938.57
2022-10-16T03:00:30.804Z,938.58
2022-10-16T03:01:30.881Z,938.58
2022-10-16T03:02:30.830Z,938.59
2022-10-16T03:03:30.846Z,938.65
2022-10-16T03:04:30.860Z,938.71
2022-10-16T03:05:30.897Z,938.73
2022-10-16T03:06:30.889Z,938.79
2022-10-16T03:07:30.909Z,938.82
2022-10-16T03:08:30.920Z,938.77
2022-10-16T03:09:30.931Z,938.74
2022-10-16T03:10:30.950Z,938.73
2022-10-16T03:11:30.960Z,938.68
2022-10-16T03:12:30.975Z,938.72
2022-10-16T03:13:30.988Z,938.68
2022-10-16T03:14:31.028Z,938.69
2022-10-16T03:15:31.021Z,938.64
2022-10-16T03:16:31.036Z,938.61
2022-10-16T03:17:31.049Z,938.62
2022-10-16T03:18:31.063Z,938.69
2022-10-16T03:19:31.076Z,938.70
2022-10-16T03:20:31.092Z,938.68
2022-10-16T03:21:31.104Z,938.73
2022-10-16T03:22:31.120Z,938.73
2022-10-16T03:24:31.151Z,938.68
2022-10-16T03:25:31.162Z,938.65
2022-10-16T03:26:31.177Z,938.65
2022-10-16T03:27:31.191Z,938.62
2022-10-16T03:28:31.340Z,938.62
2022-10-16T03:29:31.219Z,938.59
2022-10-16T03:30:31.256Z,938.59
2022-10-16T03:31:31.249Z,938.60
2022-10-16T03:32:31.326Z,938.55
2022-10-16T03:33:31.279Z,938.56
2022-10-16T03:34:31.292Z,938.55
2022-10-16T03:35:31.311Z,938.48
2022-10-16T03:36:31.321Z,938.42
2022-10-16T03:37:31.336Z,938.43
2022-10-16T03:38:31.349Z,938.34
2022-10-16T03:39:31.363Z,938.33
2022-10-16T03:40:31.378Z,938.28
2022-10-16T03:41:31.394Z,938.20
2022-10-16T03:42:31.410Z,938.20
2022-10-16T03:43:31.427Z,938.19
2022-10-16T03:44:31.437Z,938.16
2022-10-16T03:45:31.452Z,938.14
2022-10-16T03:46:31.484Z,938.09
2022-10-16T03:47:31.482Z,938.03
2022-10-16T03:48:31.493Z,938.05
2022-10-16T03:49:31.509Z,938.04
2022-10-16T03:50:31.529Z,938.07
2022-10-16T03:51:31.539Z,938.05
2022-10-16T03:52:31.553Z,938.03
2022-10-16T03:53:31.567Z,938.06
2022-10-16T03:54:31.579Z,938.05
2022-10-16T03:55:31.599Z,938.05
2022-10-16T03:56:31.610Z,938.05
2022-10-16T03:57:31.624Z,938.08
2022-10-16T03:58:31.640Z,938.12
2022-10-16T03:59:31.654Z,938.12
2022-10-16T04:00:31.665Z,938.10
2022-10-16T04:01:31.680Z,938.10
2022-10-16T04:02:31.713Z,938.13
2022-10-16T04:03:31.710Z,938.12
2022-10-16T04:04:31.724Z,938.11
2022-10-16T04:05:31.740Z,938.09
2022-10-16T04:06:31.754Z,938.11
2022-10-16T04:07:31.767Z,938.12
2022-10-16T04:08:31.783Z,938.09
2022-10-16T04:09:31.796Z,938.02
2022-10-16T04:10:31.811Z,937.98
2022-10-16T04:11:31.826Z,937.95
2022-10-16T04:12:31.838Z,937.93
2022-10-16T04:13:31.853Z,937.88
2022-10-16T04:14:31.868Z,937.86
2022-10-16T04:15:31.881Z,937.89
2022-10-16T04:16:31.897Z,937.83
2022-10-16T04:17:31.911Z,937.81
2022-10-16T04:18:31.944Z,937.81
2022-10-16T04:19:31.940Z,937.83
2022-10-16T04:20:31.956Z,937.85
2022-10-16T04:21:31.968Z,937.83
2022-10-16T04:22:31.985Z,937.82
2022-10-16T04:23:31.996Z,937.80
2022-10-16T04:24:32.012Z,937.77
2022-10-16T04:25:32.027Z,937.76
2022-10-16T04:26:32.041Z,937.70
2022-10-16T04:27:32.054Z,937.66
2022-10-16T04:28:32.154Z,937.66
2022-10-16T04:29:32.082Z,937.59
2022-10-16T04:30:32.095Z,937.57
2022-10-16T04:31:32.111Z,937.51
2022-10-16T04:32:32.126Z,937.48
2022-10-16T04:33:32.140Z,937.47
2022-10-16T04:34:32.173Z,937.48
2022-10-16T04:35:32.169Z,937.50
2022-10-16T04:36:32.184Z,937.53
2022-10-16T04:37:32.196Z,937.53
2022-10-16T04:38:32.211Z,937.52
2022-10-16T04:39:32.227Z,937.49
2022-10-16T04:40:32.239Z,937.50
2022-10-16T04:41:32.258Z,937.45
2022-10-16T04:42:32.268Z,937.47
2022-10-16T04:43:32.285Z,937.55
2022-10-16T04:44:32.298Z,937.59
2022-10-16T04:45:32.311Z,937.61
2022-10-16T04:46:32.325Z,937.59
2022-10-16T04:47:32.346Z,937.57
2022-10-16T04:48:32.354Z,937.56
2022-10-16T04:49:32.370Z,937.53
2022-10-16T04:50:32.401Z,937.48
2022-10-16T04:51:32.399Z,937.46
2022-10-16T04:52:32.468Z,937.39
2022-10-16T04:53:32.426Z,937.34
2022-10-16T04:54:32.441Z,937.34
2022-10-16T04:55:32.454Z,937.32
2022-10-16T04:56:32.470Z,937.32
2022-10-16T04:57:32.482Z,937.30
2022-10-16T04:58:32.497Z,937.29
2022-10-16T04:59:32.511Z,937.26
2022-10-16T05:00:32.529Z,937.28
2022-10-16T05:01:32.541Z,937.18
2022-10-16T05:02:32.614Z,937.14
2022-10-16T05:03:32.571Z,937.13
2022-10-16T05:04:32.584Z,937.14
2022-10-16T05:05:32.596Z,937.13
2022-10-16T05:06:32.631Z,937.09
2022-10-16T05:07:32.628Z,937.09
2022-10-16T05:08:32.640Z,937.06
2022-10-16T05:09:32.654Z,937.03
2022-10-16T05:10:32.668Z,937.03
2022-10-16T05:11:32.685Z,937.00
2022-10-16T05:12:32.697Z,936.99
2022-10-16T05:13:32.711Z,936.95
2022-10-16T05:14:32.725Z,936.91
2022-10-16T05:15:32.741Z,936.90
2022-10-16T05:16:32.753Z,936.89
2022-10-16T05:17:32.767Z,936.88
2022-10-16T05:18:32.783Z,936.84
2022-10-16T05:19:32.797Z,936.85
2022-10-16T05:20:32.813Z,936.82
2022-10-16T05:21:32.824Z,936.86
2022-10-16T05:22:32.860Z,936.84
2022-10-16T05:23:32.853Z,936.83
2022-10-16T05:24:32.869Z,936.87
2022-10-16T05:25:32.886Z,936.83
2022-10-16T05:26:32.895Z,936.81
2022-10-16T05:27:32.909Z,936.84
2022-10-16T05:28:33.010Z,936.77
2022-10-16T05:29:32.946Z,936.78
2022-10-16T05:30:32.954Z,936.82
2022-10-16T05:31:32.970Z,936.79
2022-10-16T05:32:32.983Z,936.78
2022-10-16T05:33:32.995Z,936.76
2022-10-16T05:34:33.014Z,936.73
2022-10-16T05:35:33.039Z,936.71
2022-10-16T05:36:33.044Z,936.70
2022-10-16T05:37:33.053Z,936.70
2022-10-16T05:38:33.136Z,936.70
2022-10-16T05:39:33.080Z,936.68
2022-10-16T05:40:33.094Z,936.71
2022-10-16T05:41:33.108Z,936.71
2022-10-16T05:42:33.140Z,936.68
2022-10-16T05:43:33.139Z,936.68
2022-10-16T05:45:33.165Z,936.67
2022-10-16T05:46:33.180Z,936.66
2022-10-16T05:47:33.194Z,936.67
2022-10-16T05:48:33.209Z,936.65
2022-10-16T05:49:34.865Z,936.66
2022-10-16T05:50:33.237Z,936.64
2022-10-16T05:51:33.251Z,936.60
2022-10-16T05:52:33.272Z,936.59
2022-10-16T05:53:33.451Z,936.57
2022-10-16T05:54:33.313Z,936.57
2022-10-16T05:55:33.310Z,936.59
2022-10-16T05:56:33.322Z,936.59
2022-10-16T05:57:33.336Z,936.58
2022-10-16T05:58:33.349Z,936.58
2022-10-16T05:59:33.366Z,936.60
2022-10-16T06:00:33.381Z,936.62
2022-10-16T06:01:33.516Z,936.57
2022-10-16T06:02:33.407Z,936.58
2022-10-16T06:03:33.421Z,936.63
2022-10-16T06:04:33.436Z,936.58
2022-10-16T06:05:33.449Z,936.63
2022-10-16T06:06:33.464Z,936.64
2022-10-16T06:07:33.479Z,936.66
2022-10-16T06:08:33.495Z,936.69
2022-10-16T06:09:33.515Z,936.67
2022-10-16T06:10:33.542Z,936.68
2022-10-16T06:11:33.538Z,936.69
2022-10-16T06:12:33.549Z,936.66
2022-10-16T06:13:33.563Z,936.69
2022-10-16T06:14:33.652Z,936.65
2022-10-16T06:15:33.591Z,936.64
2022-10-16T06:16:33.607Z,936.64
2022-10-16T06:17:33.620Z,936.64
2022-10-16T06:18:33.641Z,936.64
2022-10-16T06:19:33.851Z,936.59
2022-10-16T06:20:33.665Z,936.60
2022-10-16T06:21:33.693Z,936.56
2022-10-16T06:22:33.691Z,936.54
2022-10-16T06:23:33.778Z,936.48
2022-10-16T06:24:34.124Z,936.51
2022-10-16T06:25:33.737Z,936.51
2022-10-16T06:26:33.772Z,936.49
2022-10-16T06:27:33.773Z,936.45
2022-10-16T06:28:33.804Z,936.43
2022-10-16T06:29:33.792Z,936.40
2022-10-16T06:30:33.805Z,936.40
2022-10-16T06:31:33.817Z,936.41
2022-10-16T06:32:33.833Z,936.39
2022-10-16T06:33:33.859Z,936.41
2022-10-16T06:34:35.190Z,936.47
2022-10-16T06:35:33.873Z,936.47
2022-10-16T06:36:33.894Z,936.50
2022-10-16T06:37:33.902Z,936.47
2022-10-16T06:38:33.917Z,936.48
2022-10-16T06:39:33.930Z,936.46
2022-10-16T06:40:33.949Z,936.42
2022-10-16T06:41:33.960Z,936.45
2022-10-16T06:42:33.992Z,936.46
2022-10-16T06:43:33.989Z,936.44
2022-10-16T06:44:34.002Z,936.47
2022-10-16T06:45:34.016Z,936.50
2022-10-16T06:46:34.029Z,936.47
2022-10-16T06:47:34.045Z,936.49
2022-10-16T06:48:34.058Z,936.48
2022-10-16T06:49:34.073Z,936.46
2022-10-16T06:50:34.090Z,936.43
2022-10-16T06:51:35.900Z,936.45
2022-10-16T06:52:34.115Z,936.46
2022-10-16T06:53:39.521Z,936.45
2022-10-16T06:54:42.047Z,936.43
2022-10-16T06:55:34.156Z,936.43
2022-10-16T06:56:34.198Z,936.45
2022-10-16T06:57:34.188Z,936.43
2022-10-16T06:58:34.218Z,936.48
2022-10-16T06:59:34.218Z,936.52
2022-10-16T07:00:34.230Z,936.53
2022-10-16T07:01:34.253Z,936.54
2022-10-16T07:02:34.257Z,936.55
2022-10-16T07:03:34.272Z,936.61
2022-10-16T07:04:34.284Z,936.58
2022-10-16T07:05:34.298Z,936.53
2022-10-16T07:06:34.314Z,936.56
2022-10-16T07:07:34.327Z,936.52
2022-10-16T07:08:34.341Z,936.48
2022-10-16T07:09:34.357Z,936.46
2022-10-16T07:10:34.370Z,936.48
2022-10-16T07:11:34.385Z,936.42
2022-10-16T07:12:34.399Z,936.40
2022-10-16T07:13:34.413Z,936.39
2022-10-16T07:14:34.446Z,936.42
2022-10-16T07:15:34.441Z,936.43
2022-10-16T07:16:34.454Z,936.39
2022-10-16T07:17:34.469Z,936.40
2022-10-16T07:18:34.483Z,936.41
2022-10-16T07:19:34.703Z,936.37
2022-10-16T07:20:34.509Z,936.37
2022-10-16T07:21:34.524Z,936.35
2022-10-16T07:22:34.540Z,936.28
2022-10-16T07:23:34.552Z,936.29
2022-10-16T07:24:34.569Z,936.28
2022-10-16T07:25:34.579Z,936.24
2022-10-16T07:26:34.593Z,936.24
2022-10-16T07:27:34.655Z,936.21
2022-10-16T07:28:34.690Z,936.19
2022-10-16T07:29:34.638Z,936.16
2022-10-16T07:30:34.668Z,936.12
2022-10-16T07:31:34.663Z,936.14
2022-10-16T07:32:34.679Z,936.10
2022-10-16T07:33:34.692Z,936.07
2022-10-16T07:34:34.708Z,936.10
2022-10-16T07:35:34.721Z,936.15
2022-10-16T07:36:34.768Z,936.16
2022-10-16T07:37:34.749Z,936.15
2022-10-16T07:38:34.764Z,936.15
2022-10-16T07:39:34.776Z,936.18
2022-10-16T07:40:34.793Z,936.15
2022-10-16T07:41:34.806Z,936.15
2022-10-16T07:42:34.821Z,936.14
2022-10-16T07:43:34.834Z,936.10
2022-10-16T07:44:34.848Z,936.13
2022-10-16T07:45:34.862Z,936.11
2022-10-16T07:46:34.895Z,936.13
2022-10-16T07:47:34.892Z,936.11
2022-10-16T07:48:34.905Z,936.09
2022-10-16T07:49:34.919Z,936.07
2022-10-16T07:50:34.931Z,936.10
2022-10-16T07:51:34.946Z,936.05
2022-10-16T07:52:34.965Z,936.06
2022-10-16T07:53:34.972Z,936.02
2022-10-16T07:54:34.988Z,936.04
2022-10-16T07:55:35.001Z,935.97
2022-10-16T07:56:36.028Z,935.98
2022-10-16T07:57:35.031Z,935.98
2022-10-16T07:58:35.050Z,935.96
2022-10-16T07:59:35.058Z,935.93
2022-10-16T08:00:35.073Z,935.97
2022-10-16T08:01:35.126Z,936.00
2022-10-16T08:02:35.120Z,936.04
2022-10-16T08:03:35.114Z,936.05
2022-10-16T08:04:35.131Z,936.06
2022-10-16T08:05:35.143Z,936.09
2022-10-16T08:06:35.157Z,936.07
2022-10-16T08:07:35.172Z,936.12
2022-10-16T08:08:35.185Z,936.16
2022-10-16T08:09:35.199Z,936.11
2022-10-16T08:10:35.213Z,936.12
2022-10-16T08:11:35.230Z,936.12
2022-10-16T08:12:35.241Z,936.12
2022-10-16T08:13:35.255Z,936.13
2022-10-16T08:14:35.272Z,936.13
2022-10-16T08:15:35.283Z,936.16
2022-10-16T08:16:35.298Z,936.13
2022-10-16T08:17:35.312Z,936.18
2022-10-16T08:18:35.344Z,936.20
2022-10-16T08:19:35.339Z,936.23
2022-10-16T08:20:35.352Z,936.25
2022-10-16T08:21:35.371Z,936.26
2022-10-16T08:22:35.383Z,936.28
2022-10-16T08:23:35.395Z,936.27
2022-10-16T08:24:35.408Z,936.26
2022-10-16T08:25:35.422Z,936.20
2022-10-16T08:26:35.437Z,936.20
2022-10-16T08:27:35.453Z,936.21
2022-10-16T08:28:35.517Z,936.21
2022-10-16T08:29:35.479Z,936.18
2022-10-16T08:30:35.493Z,936.15
2022-10-16T08:31:35.507Z,936.17
2022-10-16T08:32:35.522Z,936.16
2022-10-16T08:33:35.535Z,936.15
2022-10-16T08:34:35.567Z,936.14
2022-10-16T08:35:35.563Z,936.17
2022-10-16T08:36:35.578Z,936.16
2022-10-16T08:37:35.592Z,936.18
2022-10-16T08:38:35.605Z,936.16
2022-10-16T08:39:35.620Z,936.13
2022-10-16T08:40:35.634Z,936.15
2022-10-16T08:41:35.649Z,936.17
2022-10-16T08:42:35.675Z,936.10
2022-10-16T08:43:35.675Z,936.19
2022-10-16T08:44:35.690Z,936.18
2022-10-16T08:45:35.704Z,936.17
2022-10-16T08:46:35.719Z,936.21
2022-10-16T08:47:35.733Z,936.20
2022-10-16T08:48:35.746Z,936.22
2022-10-16T08:49:35.791Z,936.22
2022-10-16T08:50:35.792Z,936.24
2022-10-16T08:51:37.077Z,936.25
2022-10-16T08:52:35.807Z,936.27
2022-10-16T08:53:35.818Z,936.26
2022-10-16T08:54:35.844Z,936.25
2022-10-16T08:55:35.844Z,936.26
2022-10-16T08:56:35.859Z,936.25
2022-10-16T08:57:35.871Z,936.24
2022-10-16T08:58:35.910Z,936.25
2022-10-16T08:59:35.900Z,936.25
2022-10-16T09:00:35.974Z,936.25
2022-10-16T09:01:35.927Z,936.23
2022-10-16T09:02:35.943Z,936.25
2022-10-16T09:03:35.958Z,936.24
2022-10-16T09:04:35.974Z,936.26
2022-10-16T09:05:35.982Z,936.26
2022-10-16T09:06:36.018Z,936.27
2022-10-16T09:07:36.013Z,936.29
2022-10-16T09:08:36.028Z,936.27
2022-10-16T09:09:36.046Z,936.31
2022-10-16T09:10:36.054Z,936.32
2022-10-16T09:11:36.068Z,936.30
2022-10-16T09:12:36.084Z,936.28
2022-10-16T09:13:36.095Z,936.28
2022-10-16T09:14:36.111Z,936.27
2022-10-16T09:15:36.124Z,936.29
2022-10-16T09:16:36.139Z,936.29
2022-10-16T09:17:36.156Z,936.28
2022-10-16T09:18:36.169Z,936.32
2022-10-16T09:19:36.181Z,936.29
2022-10-16T09:20:36.197Z,936.30
2022-10-16T09:21:36.208Z,936.30
2022-10-16T09:22:36.240Z,936.29
2022-10-16T09:23:36.237Z,936.30
2022-10-16T09:24:36.250Z,936.30
2022-10-16T09:25:36.266Z,936.32
2022-10-16T09:26:36.278Z,936.31
2022-10-16T09:27:36.293Z,936.34
2022-10-16T09:28:36.367Z,936.32
2022-10-16T09:29:36.321Z,936.36
2022-10-16T09:30:36.335Z,936.35
2022-10-16T09:31:36.347Z,936.30
2022-10-16T09:32:36.362Z,936.36
2022-10-16T09:33:36.375Z,936.34
2022-10-16T09:34:36.389Z,936.40
2022-10-16T09:35:36.406Z,936.42
2022-10-16T09:36:36.417Z,936.45
2022-10-16T09:37:36.432Z,936.47
2022-10-16T09:38:36.465Z,936.45
2022-10-16T09:39:36.460Z,936.44
2022-10-16T09:40:36.474Z,936.43
2022-10-16T09:41:36.492Z,936.41
2022-10-16T09:42:36.501Z,936.43
2022-10-16T09:43:36.515Z,936.41
2022-10-16T09:44:36.569Z,936.39
2022-10-16T09:45:36.545Z,936.41
2022-10-16T09:46:36.558Z,936.42
2022-10-16T09:47:36.573Z,936.41
2022-10-16T09:48:36.586Z,936.43
2022-10-16T09:49:36.598Z,936.40
2022-10-16T09:50:36.612Z,936.45
2022-10-16T09:51:36.630Z,936.46
2022-10-16T09:52:36.645Z,936.45
2022-10-16T09:53:36.655Z,936.47
2022-10-16T09:54:36.688Z,936.48
2022-10-16T09:55:36.682Z,936.45
2022-10-16T09:56:36.697Z,936.45
2022-10-16T09:57:36.712Z,936.45
2022-10-16T09:58:36.727Z,936.44
2022-10-16T09:59:36.738Z,936.42
2022-10-16T10:00:36.755Z,936.47
2022-10-16T10:01:36.768Z,936.47
2022-10-16T10:02:36.796Z,936.45
2022-10-16T10:03:36.796Z,936.45
2022-10-16T10:04:36.810Z,936.42
2022-10-16T10:05:36.823Z,936.43
2022-10-16T10:06:36.838Z,936.40
2022-10-16T10:07:36.851Z,936.41
2022-10-16T10:08:36.867Z,936.41
2022-10-16T10:09:36.879Z,936.41
2022-10-16T10:10:36.913Z,936.40
2022-10-16T10:11:36.906Z,936.39
2022-10-16T10:12:36.920Z,936.39
2022-10-16T10:13:36.935Z,936.41
2022-10-16T10:14:36.950Z,936.39
2022-10-16T10:15:36.963Z,936.36
2022-10-16T10:16:36.976Z,936.38
2022-10-16T10:17:36.990Z,936.41
2022-10-16T10:18:37.005Z,936.42
2022-10-16T10:19:37.018Z,936.35
2022-10-16T10:20:37.034Z,936.36
2022-10-16T10:21:37.047Z,936.38
2022-10-16T10:22:37.059Z,936.42
2022-10-16T10:23:37.071Z,936.46
2022-10-16T10:24:37.087Z,936.51
2022-10-16T10:25:37.101Z,936.52
2022-10-16T10:26:40.060Z,936.53
2022-10-16T10:27:37.133Z,936.58
2022-10-16T10:28:37.187Z,936.56
2022-10-16T10:29:37.158Z,936.60
2022-10-16T10:30:37.205Z,936.61
2022-10-16T10:31:37.206Z,936.64
2022-10-16T10:32:37.200Z,936.65
2022-10-16T10:33:37.217Z,936.64
2022-10-16T10:34:37.228Z,936.66
2022-10-16T10:35:37.239Z,936.68
2022-10-16T10:36:37.255Z,936.69
2022-10-16T10:37:37.270Z,936.68
2022-10-16T10:38:37.284Z,936.73
2022-10-16T10:39:37.297Z,936.74
2022-10-16T10:40:37.315Z,936.72
2022-10-16T10:41:37.326Z,936.73
2022-10-16T10:42:37.355Z,936.72
2022-10-16T10:43:37.353Z,936.70
2022-10-16T10:44:37.367Z,936.71
2022-10-16T10:45:37.380Z,936.72
2022-10-16T10:46:39.873Z,936.66
2022-10-16T10:47:37.409Z,936.71
2022-10-16T10:48:37.427Z,936.66
2022-10-16T10:49:37.438Z,936.63
2022-10-16T10:50:37.453Z,936.61
2022-10-16T10:51:37.464Z,936.60
2022-10-16T10:52:37.479Z,936.63
2022-10-16T10:53:37.491Z,936.55
2022-10-16T10:54:37.507Z,936.59
2022-10-16T10:55:37.523Z,936.52
2022-10-16T10:56:37.535Z,936.50
2022-10-16T10:58:37.594Z,936.48
2022-10-16T10:59:37.578Z,936.47
2022-10-16T11:00:37.597Z,936.43
2022-10-16T11:01:37.653Z,936.42
2022-10-16T11:02:37.617Z,936.42
2022-10-16T11:03:37.630Z,936.42
2022-10-16T11:04:37.647Z,936.44
2022-10-16T11:05:37.659Z,936.43
2022-10-16T11:06:37.742Z,936.43
2022-10-16T11:07:37.687Z,936.44
2022-10-16T11:08:37.701Z,936.48
2022-10-16T11:09:37.720Z,936.46
2022-10-16T11:10:37.731Z,936.48
2022-10-16T11:11:37.743Z,936.47
2022-10-16T11:12:37.765Z,936.45
2022-10-16T11:13:37.771Z,936.43
2022-10-16T11:14:37.804Z,936.48
2022-10-16T11:15:37.873Z,936.46
2022-10-16T11:16:37.814Z,936.44
2022-10-16T11:17:37.829Z,936.48
2022-10-16T11:18:37.843Z,936.45
2022-10-16T11:19:37.855Z,936.52
2022-10-16T11:20:37.871Z,936.50
2022-10-16T11:21:37.883Z,936.52
2022-10-16T11:22:37.897Z,936.53
2022-10-16T11:23:37.913Z,936.55
2022-10-16T11:24:37.926Z,936.54
2022-10-16T11:25:37.940Z,936.49
2022-10-16T11:26:37.954Z,936.50
2022-10-16T11:27:37.968Z,936.51
2022-10-16T11:28:38.067Z,936.50
2022-10-16T11:29:37.996Z,936.51
2022-10-16T11:30:38.028Z,936.49
2022-10-16T11:31:38.025Z,936.52
2022-10-16T11:32:38.036Z,936.49
2022-10-16T11:33:38.053Z,936.55
2022-10-16T11:34:38.109Z,936.53
2022-10-16T11:35:38.081Z,936.52
2022-10-16T11:36:38.093Z,936.49
2022-10-16T11:37:38.105Z,936.47
2022-10-16T11:38:38.121Z,936.49
2022-10-16T11:39:38.135Z,936.44
2022-10-16T11:40:38.151Z,936.41
2022-10-16T11:41:38.162Z,936.43
2022-10-16T11:42:38.177Z,936.40
2022-10-16T11:43:38.195Z,936.41
2022-10-16T11:44:38.206Z,936.39
2022-10-16T11:45:38.217Z,936.38
2022-10-16T11:46:52.579Z,936.36
2022-10-16T11:48:38.263Z,936.29
2022-10-16T11:49:38.279Z,936.26
2022-10-16T11:50:38.289Z,936.26
2022-10-16T11:51:38.303Z,936.23
2022-10-16T11:52:38.318Z,936.24
2022-10-16T11:53:38.331Z,936.21
2022-10-16T11:54:38.346Z,936.24
2022-10-16T11:55:41.740Z,936.25
2022-10-16T11:56:38.373Z,936.22
2022-10-16T11:57:38.386Z,936.20
2022-10-16T11:58:38.402Z,936.17
2022-10-16T11:59:38.415Z,936.13
2022-10-16T12:00:38.429Z,936.20
2022-10-16T12:01:38.445Z,936.17
2022-10-16T12:02:38.476Z,936.18
2022-10-16T12:03:38.513Z,936.18
2022-10-16T12:04:38.484Z,936.18
2022-10-16T12:05:38.501Z,936.16
2022-10-16T12:06:38.513Z,936.18
2022-10-16T12:07:38.527Z,936.21
2022-10-16T12:08:38.541Z,936.19
2022-10-16T12:09:38.555Z,936.18
2022-10-16T12:11:38.584Z,936.19
2022-10-16T12:12:39.025Z,936.17
2022-10-16T12:13:38.614Z,936.17
2022-10-16T12:14:57.211Z,936.24
2022-10-16T12:15:59.284Z,936.19
2022-10-16T12:16:38.653Z,936.23
2022-10-16T12:17:38.667Z,936.24
2022-10-16T12:18:38.701Z,936.21
2022-10-16T12:19:38.695Z,936.19
2022-10-16T12:20:38.711Z,936.21
2022-10-16T12:21:38.724Z,936.19
2022-10-16T12:22:40.804Z,936.20
2022-10-16T12:23:38.751Z,936.20
2022-10-16T12:24:38.766Z,936.19
2022-10-16T12:25:38.779Z,936.25
2022-10-16T12:26:38.794Z,936.20
2022-10-16T12:27:38.810Z,936.23
2022-10-16T12:28:38.908Z,936.25
2022-10-16T12:29:38.835Z,936.25
2022-10-16T12:30:38.850Z,936.29
2022-10-16T12:31:45.474Z,936.26
2022-10-16T12:32:47.545Z,936.33
2022-10-16T12:33:38.892Z,936.29
2022-10-16T12:34:38.927Z,936.33